createdAt,value
2018-08-24T00:02:20.457Z,100899.76
2018-08-24T00:04:57.133Z,100897.39
2018-08-24T00:07:31.033Z,100894.83
2018-08-24T00:10:06.934Z,100893.86
2018-08-24T00:12:43.358Z,100886.26
2018-08-24T00:15:19.373Z,100881.91
2018-08-24T00:17:53.170Z,100886.72
2018-08-24T00:20:31.625Z,100893.95
2018-08-24T00:23:03.833Z,100885.67
2018-08-24T00:25:36.226Z,100889.02
2018-08-24T00:28:09.814Z,100886.03
2018-08-24T00:30:48.749Z,100885.03
2018-08-24T00:33:28.127Z,100881.45
2018-08-24T00:36:00.945Z,100886.03
2018-08-24T00:38:33.043Z,100883.08
2018-08-24T00:41:13.274Z,100885.84
2018-08-24T00:43:48.546Z,100883.35
2018-08-24T00:46:29.540Z,100881.67
2018-08-24T00:49:00.894Z,100875.44
2018-08-24T00:51:35.515Z,100881.69
2018-08-24T00:54:11.802Z,100871.45
2018-08-24T00:56:45.191Z,100862.99
2018-08-24T00:59:23.070Z,100864.80
2018-08-24T01:01:57.480Z,100824.46
2018-08-24T01:04:42.464Z,100864.39
2018-08-24T01:07:23.667Z,100867.56
2018-08-24T01:09:56.186Z,100864.36
2018-08-24T01:12:33.860Z,100862.74
2018-08-24T01:15:08.297Z,100861.77
2018-08-24T01:17:45.428Z,100865.92
2018-08-24T01:20:17.065Z,100860.28
2018-08-24T01:22:51.693Z,100861.02
2018-08-24T01:25:22.133Z,100858.52
2018-08-24T01:27:54.354Z,100862.70
2018-08-24T01:30:29.162Z,100864.34
2018-08-24T01:36:01.622Z,100868.56
2018-08-24T01:38:41.135Z,100862.94
2018-08-24T01:41:17.455Z,100839.24
2018-08-24T01:43:54.887Z,100859.17
2018-08-24T01:46:26.377Z,100861.93
2018-08-24T01:48:56.805Z,100859.50
2018-08-24T01:51:29.011Z,100853.19
2018-08-24T01:53:59.411Z,100860.28
2018-08-24T01:56:34.655Z,100855.80
2018-08-24T01:59:08.763Z,100859.57
2018-08-24T02:01:42.132Z,100854.27
2018-08-24T02:04:15.945Z,100859.12
2018-08-24T02:06:47.961Z,100862.84
2018-08-24T02:09:26.141Z,100865.48
2018-08-24T02:12:04.480Z,100863.08
2018-08-24T02:14:40.196Z,100860.55
2018-08-24T02:17:30.018Z,100867.08
2018-08-24T02:20:13.514Z,100860.16
2018-08-24T02:22:48.344Z,100855.14
2018-08-24T02:25:23.831Z,100860.86
2018-08-24T02:28:00.012Z,100861.72
2018-08-24T02:30:33.439Z,100854.84
2018-08-24T02:33:07.007Z,100856.93
2018-08-24T02:35:45.232Z,100854.98
2018-08-24T02:38:19.380Z,100857.77
2018-08-24T02:40:52.306Z,100860.26
2018-08-24T02:43:23.667Z,100854.69
2018-08-24T02:45:59.282Z,100848.41
2018-08-24T02:48:36.595Z,100841.63
2018-08-24T02:51:12.243Z,100851.34
2018-08-24T02:53:44.907Z,100841.22
2018-08-24T02:56:17.838Z,100843.41
2018-08-24T02:58:47.625Z,100842.17
2018-08-24T03:01:18.933Z,100839.19
2018-08-24T03:03:53.498Z,100840.27
2018-08-24T03:06:27.228Z,100843.89
2018-08-24T03:08:59.113Z,100846.02
2018-08-24T03:11:35.022Z,100846.70
2018-08-24T03:14:05.594Z,100848.52
2018-08-24T03:16:38.349Z,100840.63
2018-08-24T03:19:11.111Z,100844.59
2018-08-24T03:21:43.027Z,100847.43
2018-08-24T03:24:21.030Z,100837.66
2018-08-24T03:29:39.376Z,100847.75
2018-08-24T03:32:09.952Z,100846.19
2018-08-24T03:34:45.442Z,100845.64
2018-08-24T03:37:20.637Z,100847.56
2018-08-24T03:39:55.286Z,100850.22
2018-08-24T03:42:31.474Z,100842.92
2018-08-24T03:45:05.648Z,100847.17
2018-08-24T03:47:39.251Z,100846.17
2018-08-24T03:50:14.720Z,100846.33
2018-08-24T03:52:46.275Z,100849.05
2018-08-24T03:55:16.423Z,100861.57
2018-08-24T03:57:50.802Z,100852.54
2018-08-24T04:00:22.709Z,100855.84
2018-08-24T04:02:59.381Z,100856.09
2018-08-24T04:05:30.920Z,100856.99
2018-08-24T04:08:03.226Z,100859.16
2018-08-24T04:10:43.116Z,100862.51
2018-08-24T04:13:14.350Z,100851.48
2018-08-24T04:15:50.792Z,100853.91
2018-08-24T04:18:33.324Z,100853.11
2018-08-24T04:21:04.588Z,100856.95
2018-08-24T04:23:38.174Z,100856.56
2018-08-24T04:26:10.154Z,100865.42
2018-08-24T04:28:41.938Z,100860.03
2018-08-24T04:31:11.477Z,100862.30
2018-08-24T04:33:48.283Z,100867.95
2018-08-24T04:36:23.092Z,100860.98
2018-08-24T04:38:55.564Z,100859.25
2018-08-24T04:41:30.795Z,100859.56
2018-08-24T04:44:03.030Z,100856.69
2018-08-24T04:46:43.779Z,100857.09
2018-08-24T04:49:15.572Z,100850.44
2018-08-24T04:51:50.892Z,100851.64
2018-08-24T04:54:23.743Z,100844.59
2018-08-24T04:56:59.087Z,100847.88
2018-08-24T04:59:31.422Z,100849.33
2018-08-24T05:04:56.522Z,100843.52
2018-08-24T05:07:29.537Z,100844.63
2018-08-24T05:10:03.575Z,100843.48
2018-08-24T05:12:37.937Z,100847.83
2018-08-24T05:15:08.904Z,100848.97
2018-08-24T05:20:29.682Z,100853.67
2018-08-24T05:23:08.163Z,100852.85
2018-08-24T05:25:43.154Z,100861.91
2018-08-24T05:28:15.179Z,100860.72
2018-08-24T05:30:45.243Z,100863.08
2018-08-24T05:33:14.611Z,100861.45
2018-08-24T05:35:48.985Z,100841.57
2018-08-24T05:38:23.474Z,100858.95
2018-08-24T05:40:52.952Z,100853.45
2018-08-24T05:43:24.761Z,100853.78
2018-08-24T05:45:55.986Z,100849.91
2018-08-24T05:48:26.984Z,100853.23
2018-08-24T05:50:58.671Z,100844.26
2018-08-24T05:53:28.260Z,100844.14
2018-08-24T05:56:01.001Z,100839.61
2018-08-24T06:01:22.652Z,100845.23
2018-08-24T06:03:56.589Z,100845.64
2018-08-24T06:06:33.850Z,100837.51
2018-08-24T06:09:13.050Z,100846.59
2018-08-24T06:11:48.367Z,100849.22
2018-08-24T06:14:23.449Z,100844.24
2018-08-24T06:18:04.392Z,100844.75
2018-08-24T06:20:37.656Z,100838.78
2018-08-24T06:23:09.743Z,100841.66
2018-08-24T06:25:44.364Z,100838.31
2018-08-24T06:28:17.499Z,100739.54
2018-08-24T06:30:49.155Z,100841.57
2018-08-24T06:33:23.566Z,100843.05
2018-08-24T06:35:58.511Z,100849.30
2018-08-24T06:38:29.083Z,100851.03
2018-08-24T06:41:04.966Z,100848.78
2018-08-24T06:43:39.652Z,100852.11
2018-08-24T06:46:14.236Z,100853.73
2018-08-24T06:48:46.297Z,100844.70
2018-08-24T06:51:16.745Z,100842.67
2018-08-24T06:53:51.351Z,100845.19
2018-08-24T06:56:26.204Z,100844.69
2018-08-24T06:58:58.789Z,100839.69
2018-08-24T07:01:33.371Z,100838.49
2018-08-24T07:04:11.870Z,100841.30
2018-08-24T07:06:46.594Z,100835.22
2018-08-24T07:09:23.639Z,100839.92
2018-08-24T07:11:57.009Z,100845.14
2018-08-24T07:14:29.156Z,100848.85
2018-08-24T07:17:01.740Z,100847.11
2018-08-24T07:19:34.962Z,100847.73
2018-08-24T07:22:13.147Z,100846.92
2018-08-24T07:24:49.832Z,100847.42
2018-08-24T07:27:23.262Z,100852.95
2018-08-24T07:29:55.043Z,100849.59
2018-08-24T07:32:31.797Z,100852.75
2018-08-24T07:35:02.669Z,100846.91
2018-08-24T07:37:39.231Z,100847.03
2018-08-24T07:40:18.354Z,100848.98
2018-08-24T07:42:50.086Z,100848.77
2018-08-24T07:45:24.138Z,100853.61
2018-08-24T07:47:58.329Z,100852.47
2018-08-24T07:50:31.946Z,100860.18
2018-08-24T07:53:05.001Z,100856.79
2018-08-24T07:55:35.434Z,100856.17
2018-08-24T07:58:12.699Z,100851.94
2018-08-24T08:00:46.235Z,100852.77
2018-08-24T08:03:19.180Z,100853.92
2018-08-24T08:05:51.734Z,100848.88
2018-08-24T08:08:24.293Z,100847.22
2018-08-24T08:10:56.111Z,100851.74
2018-08-24T08:13:32.315Z,100853.15
2018-08-24T08:16:02.333Z,100854.17
2018-08-24T08:18:38.844Z,100848.98
2018-08-24T08:21:11.045Z,100844.84
2018-08-24T08:23:42.692Z,100848.87
2018-08-24T08:26:19.298Z,100848.77
2018-08-24T08:28:55.265Z,100849.17
2018-08-24T08:31:24.853Z,100846.11
2018-08-24T08:33:55.460Z,100841.99
2018-08-24T08:36:28.628Z,100844.45
2018-08-24T08:39:09.669Z,100841.08
2018-08-24T08:41:50.338Z,100840.75
2018-08-24T08:44:27.296Z,100841.38
2018-08-24T08:46:57.590Z,100840.84
2018-08-24T08:49:31.775Z,100841.16
2018-08-24T08:54:44.465Z,100838.73
2018-08-24T08:57:16.741Z,100838.10
2018-08-24T08:59:50.863Z,100844.05
2018-08-24T09:02:25.022Z,100830.37
2018-08-24T09:05:00.529Z,100836.84
2018-08-24T09:07:34.638Z,100839.02
2018-08-24T09:10:06.544Z,100833.34
2018-08-24T09:12:41.287Z,100840.53
2018-08-24T09:15:12.971Z,100827.51
2018-08-24T09:17:48.939Z,100829.38
2018-08-24T09:20:24.200Z,100832.53
2018-08-24T09:23:04.798Z,100832.22
2018-08-24T09:25:49.917Z,100827.42
2018-08-24T09:28:27.406Z,100828.73
2018-08-24T09:31:24.185Z,100820.02
2018-08-24T09:34:00.860Z,100814.05
2018-08-24T09:36:38.399Z,100813.55
2018-08-24T09:39:12.281Z,100809.94
2018-08-24T09:41:50.700Z,100807.80
2018-08-24T09:44:21.814Z,100797.22
2018-08-24T09:47:00.369Z,100805.01
2018-08-24T09:49:50.203Z,100794.75
2018-08-24T09:52:26.497Z,100792.81
2018-08-24T09:55:01.902Z,100786.94
2018-08-24T09:57:37.149Z,100782.59
2018-08-24T10:00:19.609Z,100784.69
2018-08-24T10:02:51.175Z,100795.34
2018-08-24T10:05:28.954Z,100792.55
2018-08-24T10:08:14.360Z,100780.48
2018-08-24T10:10:49.769Z,100680.95
2018-08-24T10:13:20.955Z,100784.42
2018-08-24T10:15:55.560Z,100785.75
2018-08-24T10:18:27.474Z,100785.98
2018-08-24T10:21:02.126Z,100789.69
2018-08-24T10:23:36.772Z,100774.31
2018-08-24T10:28:49.543Z,100779.73
2018-08-24T10:31:22.834Z,100780.20
2018-08-24T10:33:55.550Z,100790.02
2018-08-24T10:36:25.907Z,100787.27
2018-08-24T10:38:57.007Z,100787.13
2018-08-24T10:41:31.586Z,100784.02
2018-08-24T10:44:06.650Z,100777.84
2018-08-24T10:46:38.019Z,100783.36
2018-08-24T10:49:15.867Z,100783.31
2018-08-24T10:51:56.293Z,100789.33
2018-08-24T10:54:38.782Z,100778.05
2018-08-24T10:57:12.276Z,100782.94
2018-08-24T10:59:45.643Z,100786.62
2018-08-24T11:02:25.336Z,100787.08
2018-08-24T11:07:39.771Z,100781.78
2018-08-24T11:10:12.410Z,100776.63
2018-08-24T11:12:43.272Z,100777.68
2018-08-24T11:15:14.689Z,100772.03
2018-08-24T11:20:46.754Z,100772.86
2018-08-24T11:23:20.883Z,100770.98
2018-08-24T11:25:55.214Z,100769.05
2018-08-24T11:28:25.757Z,100761.03
2018-08-24T11:30:59.966Z,100759.89
2018-08-24T11:36:14.907Z,100755.95
2018-08-24T11:47:49.539Z,100746.06
2018-08-24T11:50:24.245Z,100740.48
2018-08-24T11:53:00.250Z,100743.78
2018-08-24T11:55:31.608Z,100739.78
2018-08-24T11:58:04.484Z,100738.91
2018-08-24T12:00:36.741Z,100719.22
2018-08-24T12:03:10.312Z,100735.98
2018-08-24T12:05:42.798Z,100733.09
2018-08-24T12:08:16.747Z,100728.80
2018-08-24T12:10:50.433Z,100729.20
2018-08-24T12:13:26.887Z,100724.64
2018-08-24T12:15:57.248Z,100730.34
2018-08-24T12:18:32.738Z,100717.09
2018-08-24T12:21:05.432Z,100721.58
2018-08-24T12:23:34.998Z,100719.92
2018-08-24T12:26:07.360Z,100709.98
2018-08-24T12:28:38.963Z,100710.20
2018-08-24T12:31:13.532Z,100712.37
2018-08-24T12:33:48.532Z,100710.72
2018-08-24T12:36:26.419Z,100712.34
2018-08-24T12:39:01.174Z,100704.31
2018-08-24T12:41:36.920Z,100696.98
2018-08-24T12:44:11.794Z,100704.87
2018-08-24T12:46:46.237Z,100706.61
2018-08-24T12:49:24.448Z,100690.06
2018-08-24T12:51:58.734Z,100686.46
2018-08-24T12:54:32.929Z,100687.86
2018-08-24T12:57:05.190Z,100689.88
2018-08-24T12:59:39.836Z,100694.81
2018-08-24T13:02:12.884Z,100697.25
2018-08-24T13:04:53.722Z,100687.11
2018-08-24T13:07:27.660Z,100687.73
2018-08-24T13:10:01.224Z,100687.00
2018-08-24T13:12:33.619Z,100678.65
2018-08-24T13:15:05.283Z,100683.63
2018-08-24T13:17:40.640Z,100685.25
2018-08-24T13:20:19.030Z,100692.91
2018-08-24T13:22:51.511Z,100691.86
2018-08-24T13:25:25.077Z,100683.33
2018-08-24T13:28:00.874Z,100690.47
2018-08-24T13:30:36.224Z,100684.63
2018-08-24T13:33:11.309Z,100681.06
2018-08-24T13:35:48.916Z,100687.59
2018-08-24T13:38:23.520Z,100683.91
2018-08-24T13:40:53.851Z,100687.94
2018-08-24T13:43:24.717Z,100684.03
2018-08-24T13:45:55.403Z,100681.88
2018-08-24T13:48:32.328Z,100685.55
2018-08-24T13:51:11.061Z,100673.73
2018-08-24T13:53:48.924Z,100598.45
2018-08-24T13:56:20.474Z,100683.95
2018-08-24T13:59:00.204Z,100681.00
2018-08-24T14:01:33.226Z,100678.02
2018-08-24T14:04:07.752Z,100683.81
2018-08-24T14:06:39.014Z,100672.52
2018-08-24T14:09:17.387Z,100673.95
2018-08-24T14:11:49.176Z,100676.37
2018-08-24T14:14:22.510Z,100673.70
2018-08-24T14:16:59.439Z,100665.62
2018-08-24T14:19:36.532Z,100667.97
2018-08-24T14:22:15.074Z,100676.88
2018-08-24T14:24:53.249Z,100672.33
2018-08-24T14:27:30.946Z,100674.48
2018-08-24T14:30:10.550Z,100662.88
2018-08-24T14:32:48.506Z,100661.97
2018-08-24T14:35:23.082Z,100670.98
2018-08-24T14:37:55.147Z,100672.42
2018-08-24T14:40:27.239Z,100664.77
2018-08-24T14:43:03.370Z,100667.92
2018-08-24T14:45:39.730Z,100664.94
2018-08-24T14:48:15.244Z,100675.17
2018-08-24T14:50:50.332Z,100665.02
2018-08-24T14:53:27.311Z,100657.89
2018-08-24T14:56:02.073Z,100656.96
2018-08-24T14:58:43.383Z,100667.75
2018-08-24T15:01:21.076Z,100663.23
2018-08-24T15:03:53.458Z,100661.53
2018-08-24T15:06:26.487Z,100658.34
2018-08-24T15:11:54.431Z,100655.95
2018-08-24T15:14:29.652Z,100658.13
2018-08-24T15:17:05.245Z,100651.94
2018-08-24T15:19:37.936Z,100647.39
2018-08-24T15:22:10.650Z,100648.19
2018-08-24T15:24:50.488Z,100645.88
2018-08-24T15:27:23.431Z,100654.14
2018-08-24T15:30:03.200Z,100655.69
2018-08-24T15:32:36.607Z,100651.02
2018-08-24T15:35:10.812Z,100648.69
2018-08-24T15:37:45.540Z,100645.32
2018-08-24T15:40:21.573Z,100640.80
2018-08-24T15:42:57.093Z,100643.13
2018-08-24T15:45:31.751Z,100639.81
2018-08-24T15:48:05.105Z,100643.48
2018-08-24T15:50:37.535Z,100557.16
2018-08-24T15:53:09.493Z,100648.63
2018-08-24T15:55:43.588Z,100651.64
2018-08-24T15:58:18.462Z,100651.81
2018-08-24T16:00:54.302Z,100648.95
2018-08-24T16:03:34.718Z,100655.72
2018-08-24T16:06:09.879Z,100653.22
2018-08-24T16:08:47.514Z,100656.88
2018-08-24T16:11:23.131Z,100657.13
2018-08-24T16:13:55.113Z,100658.45
2018-08-24T16:16:30.754Z,100659.05
2018-08-24T16:19:06.076Z,100655.94
2018-08-24T16:24:38.994Z,100659.70
2018-08-24T16:27:17.176Z,100660.17
2018-08-24T16:29:51.249Z,100664.28
2018-08-24T16:32:23.664Z,100662.70
2018-08-24T16:35:01.199Z,100657.20
2018-08-24T16:37:34.716Z,100657.55
2018-08-24T16:40:06.660Z,100659.94
2018-08-24T16:42:41.018Z,100663.87
2018-08-24T16:45:17.371Z,100655.06
2018-08-24T16:47:53.825Z,100661.44
2018-08-24T16:50:32.330Z,100660.25
2018-08-24T16:53:04.402Z,100659.08
2018-08-24T16:55:40.099Z,100659.03
2018-08-24T16:58:13.353Z,100662.09
2018-08-24T17:00:45.533Z,100666.95
2018-08-24T17:03:19.595Z,100669.72
2018-08-24T17:05:58.057Z,100670.77
2018-08-24T17:08:35.266Z,100669.39
2018-08-24T17:11:08.938Z,100664.08
2018-08-24T17:13:41.617Z,100670.73
2018-08-24T17:16:16.724Z,100660.45
2018-08-24T17:18:50.992Z,100671.93
2018-08-24T17:21:22.552Z,100674.66
2018-08-24T17:23:55.839Z,100673.48
2018-08-24T17:26:25.421Z,100670.63
2018-08-24T17:28:57.639Z,100674.22
2018-08-24T17:31:30.044Z,100677.36
2018-08-24T17:34:03.260Z,100676.11
2018-08-24T17:36:40.108Z,100677.02
2018-08-24T17:39:21.462Z,100670.97
2018-08-24T17:44:30.493Z,100680.27
2018-08-24T17:47:04.853Z,100679.87
2018-08-24T17:49:41.474Z,100677.61
2018-08-24T17:52:15.228Z,100682.85
2018-08-24T17:54:48.486Z,100692.98
2018-08-24T17:57:21.793Z,100688.81
2018-08-24T17:59:59.377Z,100685.87
2018-08-24T18:02:30.582Z,100691.34
2018-08-24T18:05:03.726Z,100697.27
2018-08-24T18:07:39.656Z,100694.19
2018-08-24T18:10:12.769Z,100696.16
2018-08-24T18:12:49.412Z,100702.27
2018-08-24T18:15:25.309Z,100702.59
2018-08-24T18:17:59.741Z,100708.37
2018-08-24T18:20:45.360Z,100709.84
2018-08-24T18:23:22.854Z,100711.18
2018-08-24T18:25:59.303Z,100714.92
2018-08-24T18:28:30.663Z,100716.36
2018-08-24T18:31:07.168Z,100719.48
2018-08-24T18:33:44.653Z,100718.10
2018-08-24T18:36:20.079Z,100708.58
2018-08-24T18:38:53.110Z,100712.20
2018-08-24T18:41:25.660Z,100718.61
2018-08-24T18:43:59.315Z,100711.45
2018-08-24T18:46:34.555Z,100708.19
2018-08-24T18:49:08.445Z,100708.08
2018-08-24T18:51:39.689Z,100708.27
2018-08-24T18:54:12.381Z,100708.58
2018-08-24T18:56:45.645Z,100704.92
2018-08-24T18:59:20.231Z,100701.41
2018-08-24T19:01:54.944Z,100700.22
2018-08-24T19:04:29.263Z,100699.34
2018-08-24T19:09:40.041Z,100708.78
2018-08-24T19:12:18.978Z,100704.45
2018-08-24T19:14:53.153Z,100702.38
2018-08-24T19:17:32.130Z,100703.12
2018-08-24T19:22:48.480Z,100703.17
2018-08-24T19:25:22.061Z,100705.67
2018-08-24T19:28:05.341Z,100702.41
2018-08-24T19:30:40.771Z,100701.20
2018-08-24T19:33:14.157Z,100699.19
2018-08-24T19:35:47.800Z,100698.03
2018-08-24T19:38:26.695Z,100691.83
2018-08-24T19:41:03.741Z,100700.53
2018-08-24T19:43:34.215Z,100700.69
2018-08-24T19:46:09.281Z,100703.67
2018-08-24T19:48:48.379Z,100699.86
2018-08-24T19:51:23.734Z,100698.56
2018-08-24T19:54:01.832Z,100703.92
2018-08-24T19:56:37.525Z,100699.84
2018-08-24T19:59:15.317Z,100700.02
2018-08-24T20:01:49.073Z,100693.72
2018-08-24T20:04:28.248Z,100698.39
2018-08-24T20:07:05.474Z,100694.48
2018-08-24T20:09:43.958Z,100693.20
2018-08-24T20:12:17.958Z,100693.77
2018-08-24T20:14:54.682Z,100701.67
2018-08-24T20:17:31.159Z,100698.45
2018-08-24T20:20:06.483Z,100698.83
2018-08-24T20:22:43.682Z,100702.72
2018-08-24T20:25:22.288Z,100706.89
2018-08-24T20:27:52.072Z,100706.40
2018-08-24T20:30:28.302Z,100702.95
2018-08-24T20:33:07.105Z,100703.91
2018-08-24T20:35:43.077Z,100709.62
2018-08-24T20:38:18.002Z,100706.97
2018-08-24T20:40:55.237Z,100704.58
2018-08-24T20:43:29.692Z,100706.52
2018-08-24T20:46:13.011Z,100703.62
2018-08-24T20:48:53.750Z,100698.30
2018-08-24T20:51:28.046Z,100698.13
2018-08-24T20:54:00.471Z,100693.16
2018-08-24T20:56:35.238Z,100696.11
2018-08-24T20:59:08.017Z,100697.20
2018-08-24T21:01:44.939Z,100694.25
2018-08-24T21:04:18.204Z,100697.86
2018-08-24T21:06:58.702Z,100695.05
2018-08-24T21:09:35.551Z,100691.67
2018-08-24T21:12:06.861Z,100698.09
2018-08-24T21:14:41.337Z,100693.52
2018-08-24T21:17:15.781Z,100692.86
2018-08-24T21:19:51.699Z,100694.34
2018-08-24T21:22:25.805Z,100700.77
2018-08-24T21:24:57.594Z,100695.91
2018-08-24T21:27:31.206Z,100695.92
2018-08-24T21:30:04.828Z,100693.59
2018-08-24T21:32:37.032Z,100697.12
2018-08-24T21:35:12.566Z,100695.12
2018-08-24T21:37:42.257Z,100690.95
2018-08-24T21:40:20.908Z,100694.02
2018-08-24T21:42:59.060Z,100690.52
2018-08-24T21:45:30.617Z,100686.53
2018-08-24T21:48:03.309Z,100686.42
2018-08-24T21:50:35.707Z,100685.19
2018-08-24T21:53:14.339Z,100687.52
2018-08-24T21:55:49.753Z,100676.88
2018-08-24T21:58:35.895Z,100675.17
2018-08-24T22:01:11.376Z,100674.66
2018-08-24T22:03:47.019Z,100674.56
2018-08-24T22:06:22.272Z,100670.52
2018-08-24T22:09:00.852Z,100664.05
2018-08-24T22:11:36.031Z,100671.01
2018-08-24T22:14:28.372Z,100667.39
2018-08-24T22:17:01.859Z,100661.73
2018-08-24T22:19:34.058Z,100665.05
2018-08-24T22:22:12.837Z,100654.13
2018-08-24T22:24:46.780Z,100650.02
2018-08-24T22:27:22.818Z,100646.69
2018-08-24T22:29:57.983Z,100645.03
2018-08-24T22:32:35.383Z,100643.31
2018-08-24T22:35:12.226Z,100640.39
2018-08-24T22:37:49.762Z,100636.69
2018-08-24T22:40:29.298Z,100633.81
2018-08-24T22:43:00.760Z,100634.63
2018-08-24T22:45:34.655Z,100626.45
2018-08-24T22:48:06.050Z,100629.63
2018-08-24T22:50:39.895Z,100628.41
2018-08-24T22:53:18.113Z,100628.84
2018-08-24T22:55:49.729Z,100635.73
2018-08-24T22:58:21.051Z,100633.94
2018-08-24T23:00:54.091Z,100632.71
2018-08-24T23:03:29.285Z,100626.59
2018-08-24T23:06:07.440Z,100620.66
2018-08-24T23:08:49.439Z,100619.67
2018-08-24T23:11:22.031Z,100626.31
2018-08-24T23:13:55.067Z,100616.38
2018-08-24T23:16:29.770Z,100616.30
2018-08-24T23:19:02.614Z,100612.11
2018-08-24T23:21:36.598Z,100610.09
2018-08-24T23:24:14.541Z,100607.75
2018-08-24T23:26:44.864Z,100608.30
2018-08-24T23:29:14.394Z,100600.64
2018-08-24T23:31:48.460Z,100603.84
2018-08-24T23:34:20.616Z,100603.80
2018-08-24T23:39:50.407Z,100602.81
2018-08-24T23:42:29.624Z,100607.49
2018-08-24T23:45:04.101Z,100602.94
2018-08-24T23:47:36.984Z,100603.26
2018-08-24T23:50:09.385Z,100598.81
2018-08-24T23:52:43.012Z,100597.98
2018-08-24T23:55:21.693Z,100594.00
2018-08-24T23:57:52.952Z,100595.67
